| Date | Temp | Humidity | Rainfall | Dew Point | Wind Direction | Wind Speed | Wind Pressure | Condition | Visibility |
|---|---|---|---|---|---|---|---|---|---|
| 2025-03-11 02:03:58 | 25 | 95 | 0.00 | 24 | 190 | 3.8 | 1011 | Partly Cloudy (Night) | 10 km |
| 2025-03-11 00:03:10 | 25 | 96 | 0.00 | 25 | 200 | 5.7 | 1012 | Partly Cloudy (Night) | 10 |
| 2025-03-10 23:06:52 | 26 | 95 | 0.00 | 25 | 140 | 1.9 | 1012 | Partly Cloudy (Night) | 10 km |
| 2025-03-10 22:01:04 | 26 | 95 | 0.00 | 25 | 170 | 1.9 | 1012 | Night Thunderstorm | 10 Km |
| 2025-03-10 21:00:11 | 26 | 93 | 25 | 050 | 5.7 | 1010 | Thundershowers | 10KM | |
| 2025-03-10 20:00:18 | 27 | 91 | 25 | 040 | 9.5 | 1011 | Thundershowers | 10KM | |
| 2025-03-10 19:05:43 | 29 | 82 | 25 | 360 | 15.2 | 1010 | Night Thunderstorm | 10KM | |
| 2025-03-10 18:03:50 | 29 | 84 | 26 | 320 | 15.2 | 1009 | Distant showers | 10KM | |
| 2025-03-10 17:02:56 | 30 | 79 | 0 | 25 | 320 | 17.1 | 1009 | Cloudy | 20 KM |
| 2025-03-10 16:00:28 | 30 | 73 | 0 | 25 | 310 | 19.0 | 1009 | Cloudy | 20 KM |
| 2025-03-10 15:00:14 | 31 | 65 | 0 | 24 | 010 | 11.4 | 1009 | Cloudy | 20 KM |
| 2025-03-10 14:59:43 | 31 | 65 | 010 | 11 | Cloudy | ||||
| 2025-03-10 14:01:29 | 31 | 69 | 0 | 24 | 340 | 19.0 | 1010 | Cloudy | 20 KM |
| 2025-03-10 13:01:25 | 30 | 71 | 0.00 | 25 | 350 | 15.2 | 1011 | Cloudy | 20 KM |
| 2025-03-10 12:01:42 | 31 | 72 | 0.00 | 25 | 290 | 3.8 | 1012 | Cloudy | 20 KM |
| 2025-03-10 11:01:27 | 29 | 78 | 0.00 | 25 | 180 | 5.7 | 1013 | Cloudy | 20 KM |
| 2025-03-10 10:00:30 | 28 | 85 | 0.00 | 26 | 190 | 9.5 | 1013 | Partly Cloudy (Day) | 20 km |
| 2025-03-10 09:02:21 | 27 | 89 | 0.00 | 25 | 170 | 5.7 | 1013 | Partly Cloudy (Day) | 20 km |
| 2025-03-10 08:01:06 | 26 | 95 | 25 | 160 | 1.9 | 1012 | Partly Cloudy (Day) | 10 KM | |
| 2025-03-10 07:00:04 | 26 | 96 | 25 | 160 | 7.6 | 1011 | Partly Cloudy (Day) | 09 KM | |
| 2025-03-10 05:59:48 | 26 | 95 | 25 | 190 | 7.6 | 1010 | Partly Cloudy (Day) | 10 KM | |
| 2025-03-10 05:00:29 | 26 | 94 | 25 | 190 | 5.7 | 1010 | Partly Cloudy (Day) | 10 KM | |
| 2025-03-10 03:58:56 | 26 | 95 | 25 | 220 | 3.8 | 1010 | Partly Cloudy (Night) | 10 KM | |
| 2025-03-10 03:00:03 | 26 | 95 | 26 | 140 | 3.8 | 1010 | Partly Cloudy (Night) | 10 KM | |
| 2025-03-10 02:01:50 | 27 | 95 | 0.0 | 26 | 220 | 8 | 1010 | Cloudy | 10 km |